Airport View

Enter AWOS ICAO identifier for current METAR.

ex. KFNL

KNUI 231653Z AUTO 00000KT 10SM FEW027 27/18 A3000 RMK AO2 SLP159 T02670183

25 May 2020 01:38

Other Area AWOS: KNHK - K2W6 - KTGI - KXSA

TAF KNHK 2423/2523 VRB06KT 9999 OVC017 QNH3010INS TEMPO 2423/2505 6000 BR BKN025 OVC050 T14/2506Z T23/2521Z FN00230